Time;durP1;ratioP1;P1;durP2;ratioP2;P2;SDS_P1;SDS_P2;PMS_P1;PMS_P2;Temp;Humidity;BMP_temperature;BMP_pressure;BME280_temperature;BME280_humidity;BME280_pressure;Samples;Min_cycle;Max_cycle;Signal;HPM_P1;HPM_P2
2022/08/29 00:00:48;;;;;;;;;;;;;;;20.81;87.54;99446.31;5073456;28;19920;-44
2022/08/29 00:03:13;;;;;;;;;;;;;;;20.53;89.78;99442.06;5072104;28;19998;-44
2022/08/29 00:05:39;;;;;;;;;;;;;;;20.51;89.50;99443.94;5070810;28;19927;-44
2022/08/29 00:08:04;;;;;;;;;;;;;;;20.24;91.08;99439.56;5072001;28;19924;-43
2022/08/29 00:10:34;;;;;;;;;;;;;;;20.05;92.35;99439.91;5052298;28;19971;-43
2022/08/29 00:12:59;;;;;;;;;;;;;;;20.28;91.22;99433.19;5071221;28;19920;-43
2022/08/29 00:15:25;;;;;;;;;;;;;;;20.38;90.29;99434.25;5070626;28;19920;-44
2022/08/29 00:17:50;;;;;;;;;;;;;;;20.15;91.11;99434.94;5069846;28;20024;-43
2022/08/29 00:20:17;;;;;;;;;;;;;;;19.96;93.60;99437.91;5071496;28;19924;-43
2022/08/29 00:22:42;;;;;;;;;;;;;;;20.24;93.30;99432.56;5052005;28;19942;-43
2022/08/29 00:25:09;;;;;;;;;;;;;;;20.29;94.52;99439.25;5071903;28;20976;-44
2022/08/29 00:27:34;;;;;;;;;;;;;;;20.09;95.92;99435.31;5068533;28;19928;-43
2022/08/29 00:29:59;;;;;;;;;;;;;;;20.38;94.76;99434.25;5073208;28;20480;-43
2022/08/29 00:32:25;;;;;;;;;;;;;;;20.31;95.22;99440.84;5072197;28;20604;-45
2022/08/29 00:34:51;;;;;;;;;;;;;;;20.18;95.33;99443.41;5072465;28;20030;-45
2022/08/29 00:37:16;;;;;;;;;;;;;;;20.00;98.33;99439.34;5071516;28;19920;-43
2022/08/29 00:39:41;;;;;;;;;;;;;;;20.98;93.97;99432.06;5072263;28;19920;-43
2022/08/29 00:42:06;;;;;;;;;;;;;;;20.94;91.87;99430.59;5071902;28;19943;-43
2022/08/29 00:44:32;;;;;;;;;;;;;;;20.47;94.75;99445.91;5074190;28;19959;-43
2022/08/29 00:46:58;;;;;;;;;;;;;;;20.53;96.88;99447.28;5072859;28;19967;-44
2022/08/29 00:49:31;;;;;;;;;;;;;;;20.88;94.03;99432.69;5053123;28;19924;-43
2022/08/29 00:51:57;;;;;;;;;;;;;;;20.96;93.73;99440.06;5053081;28;19965;-44
2022/08/29 00:54:23;;;;;;;;;;;;;;;21.06;92.36;99440.25;5053148;28;20031;-44
2022/08/29 00:56:48;;;;;;;;;;;;;;;20.66;94.56;99448.16;5051240;28;19944;-43
2022/08/29 00:59:14;;;;;;;;;;;;;;;20.22;95.52;99449.28;5052590;28;20008;-43
2022/08/29 01:01:39;;;;;;;;;;;;;;;19.77;97.73;99448.66;5071026;28;19969;-44
2022/08/29 01:04:05;;;;;;;;;;;;;;;19.54;99.81;99455.28;5071689;28;19974;-44
2022/08/29 01:06:30;;;;;;;;;;;;;;;19.72;100.00;99442.88;5070298;28;19931;-44
2022/08/29 01:08:55;;;;;;;;;;;;;;;19.68;100.00;99454.44;5051387;28;19934;-44
2022/08/29 01:14:05;;;;;;;;;;;;;;;20.30;99.32;99444.41;5071457;28;20304;-43
2022/08/29 01:16:31;;;;;;;;;;;;;;;20.04;100.00;99446.91;5052231;28;19920;-44
2022/08/29 01:18:59;;;;;;;;;;;;;;;19.70;100.00;99442.16;5071974;28;19966;-44
2022/08/29 01:21:41;;;;;;;;;;;;;;;19.27;100.00;99460.41;5068227;28;19981;-44
2022/08/29 01:24:07;;;;;;;;;;;;;;;19.78;100.00;99456.41;5052792;28;20090;-44
2022/08/29 01:26:32;;;;;;;;;;;;;;;19.83;99.52;99450.91;5069050;28;20137;-43
2022/08/29 01:28:57;;;;;;;;;;;;;;;19.88;100.00;99454.06;5072040;28;19924;-43
2022/08/29 01:31:24;;;;;;;;;;;;;;;20.32;99.02;99447.75;5070518;28;20397;-43
2022/08/29 01:33:51;;;;;;;;;;;;;;;19.62;100.00;99453.88;5071368;28;19920;-43
2022/08/29 01:36:22;;;;;;;;;;;;;;;20.24;99.10;99448.25;5070795;28;20296;-44
2022/08/29 01:38:48;;;;;;;;;;;;;;;20.39;98.37;99441.19;5071355;28;20018;-44
2022/08/29 01:41:13;;;;;;;;;;;;;;;19.87;98.55;99444.53;5070062;28;20320;-43
2022/08/29 01:43:41;;;;;;;;;;;;;;;19.23;100.00;99455.41;5051799;28;19920;-44
2022/08/29 01:46:07;;;;;;;;;;;;;;;19.54;100.00;99453.50;5053518;28;19981;-43
2022/08/29 01:48:34;;;;;;;;;;;;;;;19.66;100.00;99449.31;5070769;28;19924;-43
2022/08/29 01:50:59;;;;;;;;;;;;;;;19.13;100.00;99454.25;5052178;28;20019;-43
2022/08/29 01:53:24;;;;;;;;;;;;;;;19.83;100.00;99449.13;5069805;28;19919;-43
2022/08/29 01:55:49;;;;;;;;;;;;;;;19.68;100.00;99454.44;5070849;28;20031;-43
2022/08/29 01:58:15;;;;;;;;;;;;;;;19.63;100.00;99450.31;5070652;28;19979;-43
2022/08/29 02:00:40;;;;;;;;;;;;;;;20.09;100.00;99453.63;5052762;28;19970;-43
2022/08/29 02:03:06;;;;;;;;;;;;;;;19.83;100.00;99453.50;5050972;28;19965;-43
2022/08/29 02:05:31;;;;;;;;;;;;;;;19.79;100.00;99452.84;5071401;28;20438;-43
2022/08/29 02:07:56;;;;;;;;;;;;;;;19.32;100.00;99458.41;5052465;28;19931;-43
2022/08/29 02:10:22;;;;;;;;;;;;;;;19.37;100.00;99472.00;5071537;28;19959;-43
2022/08/29 02:12:48;;;;;;;;;;;;;;;19.79;100.00;99462.47;5069178;28;20384;-43
2022/08/29 02:15:13;;;;;;;;;;;;;;;19.56;100.00;99462.09;5053409;28;19920;-43
2022/08/29 02:17:38;;;;;;;;;;;;;;;19.70;100.00;99466.50;5070372;28;19923;-43
2022/08/29 02:20:06;;;;;;;;;;;;;;;19.70;100.00;99463.88;5073057;28;19920;-44
2022/08/29 02:22:32;;;;;;;;;;;;;;;19.91;100.00;99466.94;5068530;28;20396;-43
2022/08/29 02:24:57;;;;;;;;;;;;;;;19.89;100.00;99463.59;5071127;28;19927;-44
2022/08/29 02:27:22;;;;;;;;;;;;;;;19.18;100.00;99462.69;5067116;28;19933;-43
2022/08/29 02:29:48;;;;;;;;;;;;;;;18.92;100.00;99466.00;5069974;28;19927;-43
2022/08/29 02:32:14;;;;;;;;;;;;;;;18.79;100.00;99477.16;5070931;28;20633;-43
2022/08/29 02:34:41;;;;;;;;;;;;;;;19.12;100.00;99463.03;5069853;28;19927;-43
2022/08/29 02:37:07;;;;;;;;;;;;;;;19.02;100.00;99464.50;5069144;28;19920;-44
2022/08/29 02:39:32;;;;;;;;;;;;;;;19.20;100.00;99455.59;5073237;28;20434;-43
2022/08/29 02:41:58;;;;;;;;;;;;;;;19.04;100.00;99454.81;5055488;28;19920;-43
2022/08/29 02:44:23;;;;;;;;;;;;;;;19.26;100.00;99454.38;5073354;28;19920;-43
2022/08/29 02:46:48;;;;;;;;;;;;;;;19.35;100.00;99442.53;5072905;28;19919;-43
2022/08/29 02:49:13;;;;;;;;;;;;;;;18.70;100.00;99454.19;5072552;28;19924;-43
2022/08/29 02:51:38;;;;;;;;;;;;;;;19.07;100.00;99453.78;5074940;28;20339;-42
2022/08/29 02:54:04;;;;;;;;;;;;;;;19.64;99.62;99438.13;5072603;28;20060;-43
2022/08/29 02:56:29;;;;;;;;;;;;;;;19.67;99.39;99447.53;5075540;28;19916;-43
2022/08/29 02:58:55;;;;;;;;;;;;;;;19.31;100.00;99448.88;5054746;28;19919;-43
2022/08/29 03:01:21;;;;;;;;;;;;;;;18.86;100.00;99461.97;5069846;28;20390;-43
2022/08/29 03:03:46;;;;;;;;;;;;;;;18.91;100.00;99461.72;5074040;28;19920;-43
2022/08/29 03:06:11;;;;;;;;;;;;;;;18.42;100.00;99465.34;5072796;28;19920;-43
2022/08/29 03:08:37;;;;;;;;;;;;;;;18.63;100.00;99468.47;5073136;28;19928;-43
2022/08/29 03:11:02;;;;;;;;;;;;;;;18.98;100.00;99461.25;5074572;28;19920;-43
2022/08/29 03:13:27;;;;;;;;;;;;;;;19.02;100.00;99456.66;5056098;28;19926;-42
2022/08/29 03:15:52;;;;;;;;;;;;;;;18.99;100.00;99460.31;5072731;28;19951;-43
2022/08/29 03:18:18;;;;;;;;;;;;;;;18.94;100.00;99456.31;5072687;28;19920;-44
2022/08/29 03:20:44;;;;;;;;;;;;;;;19.23;100.00;99455.41;5074222;28;19920;-43
2022/08/29 03:23:09;;;;;;;;;;;;;;;19.17;100.00;99450.53;5054494;28;20369;-44
2022/08/29 03:25:34;;;;;;;;;;;;;;;19.05;99.96;99453.06;5072216;28;19977;-43
2022/08/29 03:28:00;;;;;;;;;;;;;;;18.53;100.00;99460.34;5073615;28;19924;-43
2022/08/29 03:30:26;;;;;;;;;;;;;;;18.60;100.00;99458.25;5071827;28;19920;-44
2022/08/29 03:32:51;;;;;;;;;;;;;;;19.00;100.00;99455.94;5071520;28;19966;-43
2022/08/29 03:35:18;;;;;;;;;;;;;;;19.02;100.00;99446.22;5073582;28;19962;-43
2022/08/29 03:37:44;;;;;;;;;;;;;;;18.61;100.00;99462.53;5073249;28;20732;-43
2022/08/29 03:40:09;;;;;;;;;;;;;;;18.71;100.00;99455.84;5073199;28;19920;-44
2022/08/29 03:42:35;;;;;;;;;;;;;;;18.91;100.00;99454.72;5053825;28;20918;-44
2022/08/29 03:45:04;;;;;;;;;;;;;;;19.06;100.00;99450.34;5073762;28;19920;-43
2022/08/29 03:47:29;;;;;;;;;;;;;;;18.57;100.00;99469.69;5070221;28;20601;-43
2022/08/29 03:49:55;;;;;;;;;;;;;;;18.65;100.00;99469.25;5071255;28;19926;-43
2022/08/29 03:52:20;;;;;;;;;;;;;;;18.92;100.00;99466.00;5071480;28;19920;-44
2022/08/29 03:54:45;;;;;;;;;;;;;;;19.08;100.00;99460.69;5073005;28;19920;-44
2022/08/29 03:57:10;;;;;;;;;;;;;;;19.23;100.00;99460.63;5072657;28;19973;-43
2022/08/29 03:59:36;;;;;;;;;;;;;;;19.14;100.00;99458.56;5067405;28;20632;-44
2022/08/29 04:02:01;;;;;;;;;;;;;;;19.20;100.00;99460.81;5072300;28;19920;-45
2022/08/29 04:07:12;;;;;;;;;;;;;;;19.16;100.00;99456.69;5072141;28;19931;-44
2022/08/29 04:09:37;;;;;;;;;;;;;;;18.96;100.00;99451.84;5071237;28;20349;-43
2022/08/29 04:12:03;;;;;;;;;;;;;;;19.09;100.00;99442.34;5072290;28;19923;-43
2022/08/29 04:14:29;;;;;;;;;;;;;;;19.14;100.00;99445.50;5066365;28;19924;-44
2022/08/29 04:16:54;;;;;;;;;;;;;;;19.04;100.00;99444.38;5073697;28;20358;-45
2022/08/29 04:19:19;;;;;;;;;;;;;;;19.06;100.00;99455.56;5055202;28;20900;-45
2022/08/29 04:21:45;;;;;;;;;;;;;;;19.11;100.00;99458.75;5055030;28;20295;-44
2022/08/29 04:24:11;;;;;;;;;;;;;;;19.17;100.00;99460.16;5070582;28;19927;-45
2022/08/29 04:26:36;;;;;;;;;;;;;;;19.19;100.00;99456.50;5073979;28;19916;-44
2022/08/29 04:29:02;;;;;;;;;;;;;;;19.07;100.00;99459.88;5052470;28;19924;-44
2022/08/29 04:31:27;;;;;;;;;;;;;;;18.95;100.00;99457.97;5072618;28;20304;-45
2022/08/29 04:33:53;;;;;;;;;;;;;;;18.21;100.00;99477.84;5069686;28;19967;-45
2022/08/29 04:36:18;;;;;;;;;;;;;;;18.56;100.00;99470.59;5072784;28;19916;-44
2022/08/29 04:38:43;;;;;;;;;;;;;;;18.49;100.00;99474.50;5071013;28;19924;-44
2022/08/29 04:41:13;;;;;;;;;;;;;;;18.20;100.00;99478.78;5069004;28;20978;-44
2022/08/29 04:43:39;;;;;;;;;;;;;;;18.18;100.00;99476.25;5051656;28;19948;-44
2022/08/29 04:46:04;;;;;;;;;;;;;;;18.54;100.00;99471.63;5067779;28;19999;-45
2022/08/29 04:48:29;;;;;;;;;;;;;;;18.43;100.00;99474.88;5071203;28;20971;-44
2022/08/29 04:50:55;;;;;;;;;;;;;;;18.78;100.00;99469.41;5074249;28;19924;-44
2022/08/29 04:53:20;;;;;;;;;;;;;;;18.92;100.00;99476.44;5072418;28;19920;-44
2022/08/29 04:55:53;;;;;;;;;;;;;;;19.09;100.00;99476.28;5064578;28;19920;-44
2022/08/29 04:58:19;;;;;;;;;;;;;;;19.06;100.00;99479.06;5070171;28;19920;-44
2022/08/29 05:00:44;;;;;;;;;;;;;;;19.09;100.00;99478.88;5073324;28;19916;-44
2022/08/29 05:03:10;;;;;;;;;;;;;;;18.98;100.00;99481.28;5073394;28;20437;-45
2022/08/29 05:05:35;;;;;;;;;;;;;;;18.86;100.00;99487.22;5072827;28;20405;-44
2022/08/29 05:08:01;;;;;;;;;;;;;;;18.89;100.00;99497.50;5072867;28;19924;-43
2022/08/29 05:10:26;;;;;;;;;;;;;;;19.29;100.00;99493.34;5055310;28;20331;-44
2022/08/29 05:12:51;;;;;;;;;;;;;;;19.35;100.00;99492.16;5073715;28;19977;-46
2022/08/29 05:15:17;;;;;;;;;;;;;;;19.38;100.00;99494.56;5073498;28;19920;-44
2022/08/29 05:17:42;;;;;;;;;;;;;;;19.15;100.00;99499.38;5072532;28;20964;-45
2022/08/29 05:20:08;;;;;;;;;;;;;;;19.46;100.00;99492.34;5073726;28;20640;-44
2022/08/29 05:22:33;;;;;;;;;;;;;;;19.58;100.00;99495.97;5055215;28;19985;-44
2022/08/29 05:24:59;;;;;;;;;;;;;;;19.61;100.00;99486.19;5072871;28;19951;-44
2022/08/29 05:27:25;;;;;;;;;;;;;;;19.73;100.00;99486.38;5072879;28;20845;-44
2022/08/29 05:29:50;;;;;;;;;;;;;;;19.77;100.00;99488.69;5073106;28;20036;-45
2022/08/29 05:32:17;;;;;;;;;;;;;;;20.01;100.00;99496.78;5072792;28;20849;-44
2022/08/29 05:34:42;;;;;;;;;;;;;;;19.92;100.00;99489.53;5073445;28;19916;-44
2022/08/29 05:37:09;;;;;;;;;;;;;;;19.86;100.00;99489.91;5071873;28;19920;-44
2022/08/29 05:39:35;;;;;;;;;;;;;;;19.99;100.00;99496.03;5054436;28;20051;-45
2022/08/29 05:42:00;;;;;;;;;;;;;;;20.16;100.00;99497.59;5072616;28;19977;-44
2022/08/29 05:44:26;;;;;;;;;;;;;;;19.99;100.00;99498.66;5072534;28;20285;-45
2022/08/29 05:46:51;;;;;;;;;;;;;;;20.13;100.00;99502.19;5071557;28;20690;-44
2022/08/29 05:49:17;;;;;;;;;;;;;;;20.32;100.00;99504.44;5071923;28;20107;-46
2022/08/29 05:51:42;;;;;;;;;;;;;;;20.37;100.00;99503.22;5073713;28;20567;-45
2022/08/29 05:54:07;;;;;;;;;;;;;;;20.42;100.00;99488.06;5072710;28;20627;-45
2022/08/29 05:56:33;;;;;;;;;;;;;;;20.45;100.00;99498.31;5053674;28;20065;-44
2022/08/29 05:58:58;;;;;;;;;;;;;;;20.57;100.00;99499.34;5072785;28;20527;-44
2022/08/29 06:01:24;;;;;;;;;;;;;;;20.81;100.00;99494.28;5071587;28;19923;-45
2022/08/29 06:03:49;;;;;;;;;;;;;;;20.95;100.00;99497.75;5073552;28;19962;-44
2022/08/29 06:06:14;;;;;;;;;;;;;;;21.05;100.00;99501.41;5071900;28;19916;-44
2022/08/29 06:08:40;;;;;;;;;;;;;;;21.00;100.00;99498.28;5073473;28;19921;-45
2022/08/29 06:11:05;;;;;;;;;;;;;;;21.02;100.00;99501.63;5072571;28;20487;-44
2022/08/29 06:13:30;;;;;;;;;;;;;;;21.14;100.00;99499.97;5056661;28;20357;-45
2022/08/29 06:15:56;;;;;;;;;;;;;;;21.13;100.00;99493.88;5075755;28;20102;-44
2022/08/29 06:18:21;;;;;;;;;;;;;;;21.15;100.00;99493.78;5077391;28;20391;-45
2022/08/29 06:20:46;;;;;;;;;;;;;;;21.35;100.00;99505.50;5075785;28;20733;-46
2022/08/29 06:23:12;;;;;;;;;;;;;;;21.57;100.00;99497.03;5076509;28;19916;-44
2022/08/29 06:25:37;;;;;;;;;;;;;;;21.80;100.00;99503.28;5076205;28;19916;-45
2022/08/29 06:28:02;;;;;;;;;;;;;;;21.74;100.00;99493.25;5076787;28;19920;-45
2022/08/29 06:30:29;;;;;;;;;;;;;;;21.74;100.00;99498.50;5076834;28;19915;-45
2022/08/29 06:32:54;;;;;;;;;;;;;;;21.84;100.00;99502.13;5058207;28;21174;-45
2022/08/29 06:35:20;;;;;;;;;;;;;;;22.24;100.00;99497.53;5076557;28;19916;-45
2022/08/29 06:37:45;;;;;;;;;;;;;;;22.46;100.00;99507.28;5076347;28;20727;-46
2022/08/29 06:40:11;;;;;;;;;;;;;;;22.67;99.55;99493.53;5076506;28;20006;-45
2022/08/29 06:42:36;;;;;;;;;;;;;;;22.81;97.74;99500.38;5076295;28;20010;-45
2022/08/29 06:45:01;;;;;;;;;;;;;;;22.41;97.29;99498.91;5076269;28;19916;-46
2022/08/29 06:47:26;;;;;;;;;;;;;;;22.48;93.46;99497.53;5075822;28;19927;-45
2022/08/29 06:49:51;;;;;;;;;;;;;;;22.71;93.12;99494.97;5075892;28;20023;-45
2022/08/29 06:52:17;;;;;;;;;;;;;;;22.16;98.11;99504.25;5076018;28;19922;-45
2022/08/29 06:54:42;;;;;;;;;;;;;;;22.79;96.27;99508.38;5075573;28;20010;-44
2022/08/29 06:57:07;;;;;;;;;;;;;;;23.24;95.23;99512.94;5075949;28;20940;-44
2022/08/29 06:59:32;;;;;;;;;;;;;;;22.78;89.39;99506.69;5075572;28;19989;-44
2022/08/29 07:01:58;;;;;;;;;;;;;;;22.86;92.96;99506.97;5074588;28;20038;-46
2022/08/29 07:04:23;;;;;;;;;;;;;;;23.07;93.02;99504.53;5057250;28;20018;-45
2022/08/29 07:06:48;;;;;;;;;;;;;;;23.47;89.97;99495.38;5074216;28;20002;-46
2022/08/29 07:09:13;;;;;;;;;;;;;;;23.26;91.55;99506.59;5076061;28;19959;-45
2022/08/29 07:11:39;;;;;;;;;;;;;;;23.00;88.12;99505.13;5075532;28;20387;-45
2022/08/29 07:14:05;;;;;;;;;;;;;;;23.71;89.49;99504.00;5075245;28;19916;-46
2022/08/29 07:16:31;;;;;;;;;;;;;;;23.50;89.68;99503.88;5075412;28;19922;-45
2022/08/29 07:18:56;;;;;;;;;;;;;;;23.62;87.04;99502.09;5075735;28;20745;-46
2022/08/29 07:21:22;;;;;;;;;;;;;;;23.95;86.54;99497.81;5075728;28;19961;-46
2022/08/29 07:23:48;;;;;;;;;;;;;;;23.30;88.37;99518.56;5056457;28;19953;-45
2022/08/29 07:26:19;;;;;;;;;;;;;;;23.99;86.07;99509.72;5074109;28;19915;-46
2022/08/29 07:28:45;;;;;;;;;;;;;;;23.78;88.77;99515.72;5075812;28;19951;-45
2022/08/29 07:31:10;;;;;;;;;;;;;;;24.39;86.56;99515.25;5075201;28;19924;-45
2022/08/29 07:33:35;;;;;;;;;;;;;;;23.82;82.91;99502.34;5074863;28;19923;-45
2022/08/29 07:36:01;;;;;;;;;;;;;;;23.23;87.42;99512.09;5074968;28;20058;-46
2022/08/29 07:38:29;;;;;;;;;;;;;;;22.90;89.82;99516.31;5075509;28;19916;-47
2022/08/29 07:41:01;;;;;;;;;;;;;;;23.11;87.14;99508.63;5074703;28;20967;-45
2022/08/29 07:43:26;;;;;;;;;;;;;;;23.04;89.48;99506.59;5075661;28;19916;-46
2022/08/29 07:45:52;;;;;;;;;;;;;;;23.29;86.61;99505.56;5075026;28;19939;-45
2022/08/29 07:48:17;;;;;;;;;;;;;;;23.46;86.91;99512.13;5056710;28;19920;-45
2022/08/29 07:50:42;;;;;;;;;;;;;;;23.65;86.08;99504.50;5075679;28;19916;-45
2022/08/29 07:53:07;;;;;;;;;;;;;;;23.33;87.86;99507.81;5074445;28;19935;-46
2022/08/29 07:55:32;;;;;;;;;;;;;;;23.51;87.48;99515.22;5074453;28;19920;-45
2022/08/29 07:57:58;;;;;;;;;;;;;;;23.91;84.45;99501.63;5075205;28;19959;-44
2022/08/29 08:00:23;;;;;;;;;;;;;;;23.96;82.47;99510.81;5071539;28;20010;-46
2022/08/29 08:02:48;;;;;;;;;;;;;;;24.10;81.47;99516.78;5061991;28;19916;-46
2022/08/29 08:05:14;;;;;;;;;;;;;;;23.71;82.92;99522.41;5073896;28;19920;-44
2022/08/29 08:07:40;;;;;;;;;;;;;;;24.50;78.85;99519.69;5073410;28;19920;-47
2022/08/29 08:10:05;;;;;;;;;;;;;;;23.41;82.90;99525.63;5073805;28;19921;-45
2022/08/29 08:12:30;;;;;;;;;;;;;;;24.94;79.26;99516.97;5068268;28;19920;-45
2022/08/29 08:14:56;;;;;;;;;;;;;;;24.86;80.56;99514.13;5073634;28;19958;-44
2022/08/29 08:17:21;;;;;;;;;;;;;;;23.59;82.37;99518.09;5073211;28;19920;-46
2022/08/29 08:19:46;;;;;;;;;;;;;;;22.16;90.23;99540.97;5073440;28;19916;-45
2022/08/29 08:22:12;;;;;;;;;;;;;;;23.83;84.49;99530.31;5075057;28;20289;-45
2022/08/29 08:24:37;;;;;;;;;;;;;;;22.60;86.57;99534.31;5072306;28;19920;-45
2022/08/29 08:27:02;;;;;;;;;;;;;;;24.31;80.60;99522.09;5074385;28;19920;-45
2022/08/29 08:29:27;;;;;;;;;;;;;;;24.59;81.80;99524.19;5073721;28;19969;-44
2022/08/29 08:31:54;;;;;;;;;;;;;;;25.01;78.80;99528.66;5074107;28;19926;-45
2022/08/29 08:34:20;;;;;;;;;;;;;;;25.87;73.82;99532.78;5072751;28;20327;-44
2022/08/29 08:36:45;;;;;;;;;;;;;;;25.22;73.90;99531.31;5072189;28;20697;-45
2022/08/29 08:39:11;;;;;;;;;;;;;;;26.42;70.58;99531.50;5074040;28;19969;-44
2022/08/29 08:41:54;;;;;;;;;;;;;;;25.59;70.75;99538.72;5072397;28;19977;-44
2022/08/29 08:44:25;;;;;;;;;;;;;;;22.74;79.37;99544.66;5038212;28;19923;-44
2022/08/29 08:46:52;;;;;;;;;;;;;;;25.07;75.13;99527.34;5072744;28;20464;-44
2022/08/29 08:49:23;;;;;;;;;;;;;;;26.45;67.73;99529.41;5054010;28;20381;-45
2022/08/29 08:51:52;;;;;;;;;;;;;;;26.75;66.77;99537.38;5055681;28;19923;-44
2022/08/29 08:54:22;;;;;;;;;;;;;;;24.87;74.03;99542.16;5054876;28;19920;-44
2022/08/29 08:56:48;;;;;;;;;;;;;;;26.52;69.54;99537.59;5054426;28;20423;-46
2022/08/29 08:59:16;;;;;;;;;;;;;;;26.48;68.26;99530.97;5073412;28;19916;-45
2022/08/29 09:01:44;;;;;;;;;;;;;;;26.92;64.23;99528.75;5054304;28;19923;-45
2022/08/29 09:04:16;;;;;;;;;;;;;;;25.97;69.30;99535.44;5073740;28;19927;-44
2022/08/29 09:06:41;;;;;;;;;;;;;;;26.64;66.19;99520.69;5052835;28;20402;-45
2022/08/29 09:09:19;;;;;;;;;;;;;;;26.77;62.09;99524.84;5073359;28;19945;-44
2022/08/29 09:11:48;;;;;;;;;;;;;;;27.20;62.89;99528.84;5052879;28;20565;-44
2022/08/29 09:14:36;;;;;;;;;;;;;;;27.39;57.11;99526.16;5069771;28;19967;-43
2022/08/29 09:17:01;;;;;;;;;;;;;;;25.09;70.65;99536.78;5034512;28;20011;-44
2022/08/29 09:19:26;;;;;;;;;;;;;;;25.59;68.45;99536.09;5054489;28;20414;-44
2022/08/29 09:21:54;;;;;;;;;;;;;;;26.52;68.72;99527.03;5072830;28;19922;-43
2022/08/29 09:24:24;;;;;;;;;;;;;;;25.65;69.47;99520.56;5071896;28;19916;-44
2022/08/29 09:26:49;;;;;;;;;;;;;;;27.02;65.20;99524.25;5054105;28;20095;-45
2022/08/29 09:29:19;;;;;;;;;;;;;;;26.94;60.78;99524.16;5071913;28;20631;-44
2022/08/29 09:31:45;;;;;;;;;;;;;;;28.33;57.45;99520.69;5072433;28;20365;-44
2022/08/29 09:34:11;;;;;;;;;;;;;;;28.41;53.85;99519.09;5072231;28;19923;-44
2022/08/29 09:36:39;;;;;;;;;;;;;;;26.82;57.45;99533.19;5053173;28;19916;-44
2022/08/29 09:39:23;;;;;;;;;;;;;;;26.66;62.86;99526.69;5072603;28;19916;-44
2022/08/29 09:41:50;;;;;;;;;;;;;;;27.44;62.13;99525.75;5072641;28;19920;-45
2022/08/29 09:44:24;;;;;;;;;;;;;;;28.20;56.90;99520.22;5071753;28;19916;-44
2022/08/29 09:47:02;;;;;;;;;;;;;;;28.86;54.80;99521.69;5071318;28;19922;-43
2022/08/29 09:49:28;;;;;;;;;;;;;;;29.06;51.60;99510.88;5071157;28;19924;-44
2022/08/29 09:51:53;;;;;;;;;;;;;;;27.95;53.69;99516.47;5071475;28;20704;-44
2022/08/29 09:54:21;;;;;;;;;;;;;;;28.29;56.04;99519.31;5053474;28;20556;-45
2022/08/29 09:56:55;;;;;;;;;;;;;;;29.08;52.51;99512.44;5070770;28;19923;-44
2022/08/29 09:59:22;;;;;;;;;;;;;;;28.32;51.97;99516.38;5072316;28;19923;-44
2022/08/29 10:01:48;;;;;;;;;;;;;;;26.25;63.28;99525.06;5071864;28;20443;-45
2022/08/29 10:04:15;;;;;;;;;;;;;;;26.49;62.34;99516.75;5044450;28;19959;-45
2022/08/29 10:06:40;;;;;;;;;;;;;;;27.65;57.98;99514.94;5053426;28;19979;-44
2022/08/29 10:09:05;;;;;;;;;;;;;;;27.81;62.20;99515.13;5071307;28;19928;-45
2022/08/29 10:11:34;;;;;;;;;;;;;;;28.46;53.97;99508.88;5070556;28;19946;-44
2022/08/29 10:14:04;;;;;;;;;;;;;;;26.64;63.77;99525.97;5049618;28;19967;-44
2022/08/29 10:16:50;;;;;;;;;;;;;;;28.56;54.33;99507.84;5039956;28;20003;-45
2022/08/29 10:19:25;;;;;;;;;;;;;;;27.86;55.43;99515.53;5053127;28;19916;-45
2022/08/29 10:21:50;;;;;;;;;;;;;;;27.54;59.52;99515.94;5039172;28;19985;-45
2022/08/29 10:24:15;;;;;;;;;;;;;;;28.10;60.87;99512.34;5072200;28;19924;-45
2022/08/29 10:26:43;;;;;;;;;;;;;;;28.80;53.96;99502.91;5072261;28;19941;-45
2022/08/29 10:29:13;;;;;;;;;;;;;;;29.23;52.12;99506.56;5071765;28;20830;-45
2022/08/29 10:31:50;;;;;;;;;;;;;;;29.94;49.66;99497.44;5053476;28;20690;-45
2022/08/29 10:34:20;;;;;;;;;;;;;;;29.74;49.69;99499.50;5054852;28;19962;-45
2022/08/29 10:36:48;;;;;;;;;;;;;;;29.36;46.15;99494.53;5054624;28;19915;-45
2022/08/29 10:39:16;;;;;;;;;;;;;;;30.11;49.17;99498.31;5072947;28;20311;-46
2022/08/29 10:41:44;;;;;;;;;;;;;;;29.04;51.19;99513.69;5072916;28;19923;-45
2022/08/29 10:44:16;;;;;;;;;;;;;;;28.92;51.74;99512.28;5072062;28;19973;-45
2022/08/29 10:46:47;;;;;;;;;;;;;;;28.92;51.93;99504.31;5054270;28;19916;-45
2022/08/29 10:49:18;;;;;;;;;;;;;;;28.69;52.43;99503.97;5070658;28;19920;-45
2022/08/29 10:51:51;;;;;;;;;;;;;;;28.34;55.23;99511.75;5044060;28;19950;-46
2022/08/29 10:54:28;;;;;;;;;;;;;;;27.42;60.17;99509.19;5052192;28;19922;-45
2022/08/29 10:56:53;;;;;;;;;;;;;;;28.99;53.01;99502.72;5042272;28;19926;-45
2022/08/29 10:59:22;;;;;;;;;;;;;;;29.77;50.38;99491.25;5074023;28;19935;-46
2022/08/29 11:01:49;;;;;;;;;;;;;;;29.88;48.09;99501.59;5057757;28;20583;-46
2022/08/29 11:04:16;;;;;;;;;;;;;;;29.52;51.37;99503.56;5076150;28;19919;-47
2022/08/29 11:07:00;;;;;;;;;;;;;;;31.81;43.62;99501.00;5056773;28;19923;-46
2022/08/29 11:09:28;;;;;;;;;;;;;;;30.59;46.81;99499.41;5075090;28;19920;-45
2022/08/29 11:12:05;;;;;;;;;;;;;;;30.43;45.30;99503.72;5058870;28;20560;-46
2022/08/29 11:14:32;;;;;;;;;;;;;;;28.99;49.93;99503.56;5046736;28;19951;-45
2022/08/29 11:16:57;;;;;;;;;;;;;;;29.72;48.41;99490.88;5045037;28;19970;-45
2022/08/29 11:19:22;;;;;;;;;;;;;;;31.10;45.72;99486.75;5056255;28;20018;-46
2022/08/29 11:21:50;;;;;;;;;;;;;;;32.14;45.43;99478.69;5076907;28;19920;-45
2022/08/29 11:24:16;;;;;;;;;;;;;;;30.73;41.63;99485.44;5057931;28;19916;-46
2022/08/29 11:26:47;;;;;;;;;;;;;;;30.92;44.15;99488.78;5074790;28;19959;-46
2022/08/29 11:29:23;;;;;;;;;;;;;;;30.72;43.73;99481.09;5076194;28;19965;-45
2022/08/29 11:31:49;;;;;;;;;;;;;;;30.77;45.32;99485.94;5075195;28;19970;-46
2022/08/29 11:34:17;;;;;;;;;;;;;;;31.14;43.30;99472.09;5058403;28;20433;-46
2022/08/29 11:37:01;;;;;;;;;;;;;;;31.44;44.56;99459.06;5056918;28;20457;-46
2022/08/29 11:39:38;;;;;;;;;;;;;;;32.27;44.08;99449.59;5075274;28;20727;-46
2022/08/29 11:42:05;;;;;;;;;;;;;;;29.80;45.04;99451.91;5075680;28;19916;-45
2022/08/29 11:44:31;;;;;;;;;;;;;;;30.14;48.36;99453.66;5074957;28;19926;-45
2022/08/29 11:46:56;;;;;;;;;;;;;;;30.22;46.30;99450.16;5056306;28;19916;-47
2022/08/29 11:49:32;;;;;;;;;;;;;;;28.67;51.74;99456.44;5075028;28;20319;-46
2022/08/29 11:52:09;;;;;;;;;;;;;;;30.14;50.54;99452.81;5075366;28;19916;-45
2022/08/29 11:54:35;;;;;;;;;;;;;;;32.74;41.58;99439.75;5075221;28;20424;-46
2022/08/29 11:57:01;;;;;;;;;;;;;;;31.48;39.27;99430.28;5075016;28;19915;-46
2022/08/29 11:59:53;;;;;;;;;;;;;;;30.40;45.56;99442.94;5074991;28;19959;-46
2022/08/29 12:02:28;;;;;;;;;;;;;;;31.87;44.04;99428.38;5056753;28;19928;-46
2022/08/29 12:04:54;;;;;;;;;;;;;;;29.96;45.74;99440.50;5070553;28;19916;-46
2022/08/29 12:07:20;;;;;;;;;;;;;;;30.02;50.89;99447.00;5069284;28;19923;-46
2022/08/29 12:09:47;;;;;;;;;;;;;;;31.73;47.06;99438.97;5074094;28;19915;-46
2022/08/29 12:12:14;;;;;;;;;;;;;;;32.11;39.19;99434.56;5046906;28;19921;-46
2022/08/29 12:14:41;;;;;;;;;;;;;;;33.10;39.50;99432.72;5046027;28;19916;-46
2022/08/29 12:17:08;;;;;;;;;;;;;;;32.80;39.29;99421.19;5074353;28;20541;-46
2022/08/29 12:19:47;;;;;;;;;;;;;;;32.04;38.82;99431.78;5055873;28;19966;-46
2022/08/29 12:22:31;;;;;;;;;;;;;;;30.57;43.86;99441.06;5056376;28;19937;-46
2022/08/29 12:24:56;;;;;;;;;;;;;;;31.71;39.73;99425.00;5073238;28;19970;-47
2022/08/29 12:27:22;;;;;;;;;;;;;;;31.96;41.25;99429.19;5054916;28;20002;-46
2022/08/29 12:29:48;;;;;;;;;;;;;;;33.61;37.95;99423.13;5053733;28;19959;-46
2022/08/29 12:32:28;;;;;;;;;;;;;;;32.45;37.06;99423.47;5069822;28;21034;-46
2022/08/29 12:35:11;;;;;;;;;;;;;;;33.19;39.04;99417.44;5073912;28;20800;-47
2022/08/29 12:37:40;;;;;;;;;;;;;;;33.99;35.81;99417.56;5051430;28;19916;-48
2022/08/29 12:40:28;;;;;;;;;;;;;;;34.76;35.99;99416.78;5074031;28;20407;-46
2022/08/29 12:42:56;;;;;;;;;;;;;;;31.36;38.70;99416.47;4990892;28;19918;-47
2022/08/29 12:45:23;;;;;;;;;;;;;;;31.78;40.66;99407.31;5065416;28;19916;-47
2022/08/29 12:48:04;;;;;;;;;;;;;;;32.46;41.34;99409.16;5055846;28;20503;-48